createdAt,value
2018-12-30T00:00:59.625Z,87.04
2018-12-30T00:03:28.032Z,87.65
2018-12-30T00:05:56.519Z,88.94
2018-12-30T00:08:25.224Z,88.54
2018-12-30T00:10:53.912Z,86.37
2018-12-30T00:13:22.604Z,87.06
2018-12-30T00:15:51.323Z,87.92
2018-12-30T00:18:20.011Z,86.54
2018-12-30T00:20:48.415Z,86.28
2018-12-30T00:23:17.107Z,84.90
2018-12-30T00:25:45.452Z,86.33
2018-12-30T00:28:13.836Z,81.70
2018-12-30T00:30:42.188Z,84.97
2018-12-30T00:33:10.503Z,81.77
2018-12-30T00:35:39.230Z,83.93
2018-12-30T00:38:08.100Z,84.89
2018-12-30T00:40:36.416Z,84.27
2018-12-30T00:43:04.744Z,85.01
2018-12-30T00:45:33.055Z,88.16
2018-12-30T00:48:01.395Z,90.01
2018-12-30T00:50:29.710Z,88.63
2018-12-30T00:52:58.232Z,90.37
2018-12-30T00:55:26.544Z,90.66
2018-12-30T00:57:54.877Z,92.81
2018-12-30T01:00:23.279Z,96.13
2018-12-30T01:02:51.603Z,100.00
2018-12-30T01:05:19.932Z,98.86
2018-12-30T01:07:48.362Z,100.00
2018-12-30T01:10:16.867Z,100.00
2018-12-30T01:12:45.537Z,100.00
2018-12-30T01:15:13.924Z,99.45
2018-12-30T01:17:42.262Z,99.74
2018-12-30T01:20:11.057Z,100.00
2018-12-30T01:22:39.393Z,100.00
2018-12-30T01:25:08.057Z,100.00
2018-12-30T01:27:36.409Z,100.00
2018-12-30T01:30:06.377Z,100.00
2018-12-30T01:32:34.707Z,100.00
2018-12-30T01:35:03.031Z,100.00
2018-12-30T01:37:31.850Z,100.00
2018-12-30T01:40:00.239Z,100.00
2018-12-30T01:42:28.567Z,100.00
2018-12-30T01:44:56.902Z,100.00
2018-12-30T01:47:25.842Z,100.00
2018-12-30T01:49:54.542Z,100.00
2018-12-30T01:52:22.910Z,100.00
2018-12-30T01:54:51.240Z,100.00
2018-12-30T01:57:19.553Z,100.00
2018-12-30T01:59:47.942Z,100.00
2018-12-30T02:02:16.284Z,100.00
2018-12-30T02:04:44.684Z,100.00
2018-12-30T02:07:13.021Z,100.00
2018-12-30T02:09:41.338Z,100.00
2018-12-30T02:12:09.677Z,100.00
2018-12-30T02:14:38.268Z,100.00
2018-12-30T02:17:06.594Z,100.00
2018-12-30T02:19:34.923Z,100.00
2018-12-30T02:22:03.259Z,100.00
2018-12-30T02:24:31.688Z,100.00
2018-12-30T02:27:00.504Z,100.00
2018-12-30T02:29:28.822Z,100.00
2018-12-30T02:31:57.160Z,100.00
2018-12-30T02:34:25.821Z,100.00
2018-12-30T02:36:54.143Z,100.00
2018-12-30T02:39:22.473Z,100.00
2018-12-30T02:41:50.791Z,100.00
2018-12-30T02:44:19.124Z,100.00
2018-12-30T02:46:47.449Z,100.00
2018-12-30T02:49:15.924Z,100.00
2018-12-30T02:51:50.229Z,100.00
2018-12-30T02:54:14.343Z,100.00
2018-12-30T02:56:42.658Z,100.00
2018-12-30T02:59:11.004Z,100.00
2018-12-30T03:01:39.662Z,100.00
2018-12-30T03:04:07.995Z,100.00
2018-12-30T03:06:36.314Z,100.00
2018-12-30T03:09:07.274Z,100.00
2018-12-30T03:11:35.658Z,100.00
2018-12-30T03:14:03.984Z,100.00
2018-12-30T03:16:32.683Z,100.00
2018-12-30T03:19:01.399Z,100.00
2018-12-30T03:21:29.716Z,100.00
2018-12-30T03:23:58.055Z,100.00
2018-12-30T03:26:26.367Z,100.00
2018-12-30T03:28:54.707Z,100.00
2018-12-30T03:31:23.026Z,100.00
2018-12-30T03:33:51.341Z,100.00
2018-12-30T03:36:19.751Z,100.00
2018-12-30T03:38:48.059Z,100.00
2018-12-30T03:41:16.735Z,100.00
2018-12-30T03:43:45.056Z,100.00
2018-12-30T03:46:13.402Z,100.00
2018-12-30T03:48:41.720Z,100.00
2018-12-30T03:51:10.060Z,100.00
2018-12-30T03:53:38.381Z,100.00
2018-12-30T03:56:06.725Z,100.00
2018-12-30T03:58:35.042Z,100.00
2018-12-30T04:01:03.371Z,100.00
2018-12-30T04:03:31.703Z,100.00
2018-12-30T04:06:00.016Z,100.00
2018-12-30T04:08:28.360Z,100.00
2018-12-30T04:10:56.679Z,100.00
2018-12-30T04:13:25.020Z,100.00
2018-12-30T04:15:53.339Z,100.00
2018-12-30T04:18:22.042Z,100.00
2018-12-30T04:20:50.361Z,100.00
2018-12-30T04:23:18.705Z,100.00
2018-12-30T04:25:47.293Z,100.00
2018-12-30T04:28:15.636Z,100.00
2018-12-30T04:30:43.950Z,100.00
2018-12-30T04:33:12.273Z,100.00
2018-12-30T04:35:40.604Z,100.00
2018-12-30T04:38:08.918Z,100.00
2018-12-30T04:40:37.260Z,100.00
2018-12-30T04:43:05.972Z,100.00
2018-12-30T04:45:34.309Z,100.00
2018-12-30T04:48:03.357Z,100.00
2018-12-30T04:50:31.694Z,100.00
2018-12-30T04:53:00.018Z,100.00
2018-12-30T04:55:28.358Z,100.00
2018-12-30T04:57:56.768Z,100.00
2018-12-30T05:00:25.091Z,100.00
2018-12-30T05:02:53.426Z,100.00
2018-12-30T05:05:23.287Z,100.00
2018-12-30T05:07:51.758Z,100.00
2018-12-30T05:10:20.079Z,100.00
2018-12-30T05:12:48.410Z,100.00
2018-12-30T05:15:16.737Z,100.00
2018-12-30T05:17:45.067Z,100.00
2018-12-30T05:20:13.390Z,100.00
2018-12-30T05:22:41.726Z,100.00
2018-12-30T05:25:10.044Z,100.00
2018-12-30T05:27:38.600Z,100.00
2018-12-30T05:30:07.263Z,100.00
2018-12-30T05:32:35.583Z,100.00
2018-12-30T05:35:04.469Z,100.00
2018-12-30T05:37:32.792Z,100.00
2018-12-30T05:40:01.135Z,100.00
2018-12-30T05:42:29.450Z,100.00
2018-12-30T05:45:00.716Z,100.00
2018-12-30T05:47:29.032Z,100.00
2018-12-30T05:49:57.432Z,100.00
2018-12-30T05:52:26.076Z,100.00
2018-12-30T05:54:54.384Z,100.00
2018-12-30T05:57:22.977Z,100.00
2018-12-30T05:59:51.287Z,100.00
2018-12-30T06:02:20.010Z,100.00
2018-12-30T06:04:48.315Z,100.00
2018-12-30T06:07:16.813Z,100.00
2018-12-30T06:09:45.465Z,100.00
2018-12-30T06:12:14.182Z,100.00
2018-12-30T06:14:42.493Z,100.00
2018-12-30T06:17:10.808Z,100.00
2018-12-30T06:19:39.281Z,100.00
2018-12-30T06:22:07.614Z,100.00
2018-12-30T06:24:36.089Z,100.00
2018-12-30T06:27:05.308Z,100.00
2018-12-30T06:29:33.773Z,100.00
2018-12-30T06:32:02.423Z,100.00
2018-12-30T06:34:30.729Z,100.00
2018-12-30T06:36:59.081Z,100.00
2018-12-30T06:39:27.401Z,100.00
2018-12-30T06:41:55.741Z,100.00
2018-12-30T06:44:24.064Z,100.00
2018-12-30T06:46:52.409Z,100.00
2018-12-30T06:49:20.727Z,100.00
2018-12-30T06:51:49.041Z,100.00
2018-12-30T06:54:17.383Z,100.00
2018-12-30T06:56:45.697Z,100.00
2018-12-30T06:59:14.038Z,100.00
2018-12-30T07:01:42.358Z,100.00
2018-12-30T07:04:10.855Z,100.00
2018-12-30T07:06:39.386Z,100.00
2018-12-30T07:09:07.699Z,100.00
2018-12-30T07:11:36.035Z,100.00
2018-12-30T07:14:04.345Z,100.00
2018-12-30T07:16:32.661Z,100.00
2018-12-30T07:19:00.999Z,100.00
2018-12-30T07:21:29.337Z,100.00
2018-12-30T07:23:57.678Z,100.00
2018-12-30T07:26:26.000Z,100.00
2018-12-30T07:28:54.346Z,100.00
2018-12-30T07:31:22.678Z,100.00
2018-12-30T07:33:51.015Z,100.00
2018-12-30T07:36:19.326Z,100.00
2018-12-30T07:38:47.672Z,100.00
2018-12-30T07:41:16.277Z,100.00
2018-12-30T07:43:44.602Z,100.00
2018-12-30T07:46:12.949Z,100.00
2018-12-30T07:48:41.377Z,100.00
2018-12-30T07:51:09.715Z,100.00
2018-12-30T07:53:38.117Z,100.00
2018-12-30T07:56:06.452Z,100.00
2018-12-30T07:58:35.084Z,100.00
2018-12-30T08:01:03.772Z,100.00
2018-12-30T08:03:32.154Z,100.00
2018-12-30T08:06:00.492Z,100.00
2018-12-30T08:08:28.820Z,100.00
2018-12-30T08:10:57.189Z,100.00
2018-12-30T08:13:25.478Z,100.00
2018-12-30T08:15:53.791Z,100.00
2018-12-30T08:18:22.137Z,100.00
2018-12-30T08:20:50.452Z,100.00
2018-12-30T08:23:21.507Z,100.00
2018-12-30T08:25:49.430Z,100.00
2018-12-30T08:28:24.839Z,100.00
2018-12-30T08:30:48.140Z,100.00
2018-12-30T08:33:16.459Z,100.00
2018-12-30T08:35:44.798Z,100.00
2018-12-30T08:38:13.148Z,100.00
2018-12-30T08:40:41.489Z,100.00
2018-12-30T08:43:09.806Z,100.00
2018-12-30T08:45:38.429Z,100.00
2018-12-30T08:48:06.951Z,100.00
2018-12-30T08:50:35.287Z,100.00
2018-12-30T08:53:03.990Z,100.00
2018-12-30T08:55:32.328Z,100.00
2018-12-30T08:58:00.635Z,100.00
2018-12-30T09:00:28.974Z,100.00
2018-12-30T09:02:57.287Z,100.00
2018-12-30T09:05:25.606Z,100.00
2018-12-30T09:07:53.945Z,100.00
2018-12-30T09:10:22.260Z,100.00
2018-12-30T09:12:50.589Z,100.00
2018-12-30T09:15:19.937Z,100.00
2018-12-30T09:17:48.301Z,100.00
2018-12-30T09:20:16.615Z,100.00
2018-12-30T09:22:45.089Z,100.00
2018-12-30T09:25:13.503Z,100.00
2018-12-30T09:27:41.825Z,100.00
2018-12-30T09:30:10.225Z,100.00
2018-12-30T09:32:38.534Z,100.00
2018-12-30T09:35:07.050Z,100.00
2018-12-30T09:37:35.369Z,100.00
2018-12-30T09:40:04.673Z,100.00
2018-12-30T09:42:33.012Z,100.00
2018-12-30T09:45:01.334Z,100.00
2018-12-30T09:47:29.665Z,100.00
2018-12-30T09:49:58.358Z,100.00
2018-12-30T09:52:26.920Z,100.00
2018-12-30T09:54:55.228Z,100.00
2018-12-30T09:57:23.550Z,100.00
2018-12-30T09:59:51.945Z,100.00
2018-12-30T10:02:20.621Z,100.00
2018-12-30T10:04:49.090Z,100.00
2018-12-30T10:07:17.492Z,100.00
2018-12-30T10:09:45.828Z,100.00
2018-12-30T10:12:14.215Z,100.00
2018-12-30T10:14:42.564Z,100.00
2018-12-30T10:17:11.214Z,100.00
2018-12-30T10:19:39.631Z,100.00
2018-12-30T10:22:08.025Z,100.00
2018-12-30T10:24:36.672Z,100.00
2018-12-30T10:27:05.001Z,98.35
2018-12-30T10:29:33.440Z,94.88
2018-12-30T10:32:01.770Z,95.65
2018-12-30T10:34:30.511Z,96.86
2018-12-30T10:36:59.017Z,98.17
2018-12-30T10:39:27.330Z,92.40
2018-12-30T10:41:57.191Z,95.62
2018-12-30T10:44:25.750Z,97.17
2018-12-30T10:46:54.066Z,93.54
2018-12-30T10:49:22.393Z,93.60
2018-12-30T10:51:50.713Z,98.17
2018-12-30T10:54:19.042Z,96.24
2018-12-30T10:56:47.723Z,94.55
2018-12-30T10:59:16.572Z,95.96
2018-12-30T11:01:44.878Z,96.94
2018-12-30T11:04:13.237Z,98.18
2018-12-30T11:06:41.630Z,98.24
2018-12-30T11:09:09.959Z,98.11
2018-12-30T11:11:38.271Z,97.60
2018-12-30T11:14:06.963Z,95.26
2018-12-30T11:16:35.588Z,98.98
2018-12-30T11:19:04.343Z,93.63
2018-12-30T11:21:32.655Z,97.31
2018-12-30T11:24:08.538Z,98.85
2018-12-30T11:26:32.353Z,98.14
2018-12-30T11:29:01.040Z,99.45
2018-12-30T11:31:29.444Z,100.00
2018-12-30T11:33:57.760Z,99.04
2018-12-30T11:36:26.314Z,99.83
2018-12-30T11:38:54.627Z,98.90
2018-12-30T11:41:23.009Z,95.51
2018-12-30T11:43:51.341Z,94.67
2018-12-30T11:46:20.021Z,93.02
2018-12-30T11:48:49.902Z,93.49
2018-12-30T11:51:18.942Z,91.81
2018-12-30T11:53:47.493Z,93.91
2018-12-30T11:56:16.558Z,91.34
2018-12-30T11:58:44.883Z,95.05
2018-12-30T12:01:13.187Z,93.19
2018-12-30T12:03:41.573Z,91.16
2018-12-30T12:06:09.904Z,91.14
2018-12-30T12:08:38.210Z,90.84
2018-12-30T12:11:06.903Z,90.15
2018-12-30T12:13:35.288Z,90.27
2018-12-30T12:16:03.591Z,91.51
2018-12-30T12:18:31.933Z,91.21
2018-12-30T12:21:00.244Z,89.75
2018-12-30T12:23:28.656Z,88.46
2018-12-30T12:25:56.976Z,89.23
2018-12-30T12:28:25.335Z,89.02
2018-12-30T12:30:53.645Z,85.48
2018-12-30T12:33:21.968Z,87.40
2018-12-30T12:35:50.278Z,88.14
2018-12-30T12:38:18.619Z,87.68
2018-12-30T12:40:46.955Z,87.25
2018-12-30T12:43:15.256Z,87.57
2018-12-30T12:45:43.584Z,84.88
2018-12-30T12:48:11.974Z,85.11
2018-12-30T12:50:40.298Z,86.22
2018-12-30T12:53:08.612Z,85.01
2018-12-30T12:55:36.948Z,86.74
2018-12-30T12:58:05.251Z,83.38
2018-12-30T13:00:33.854Z,83.63
2018-12-30T13:03:02.175Z,85.22
2018-12-30T13:05:30.715Z,84.45
2018-12-30T13:07:59.092Z,84.00
2018-12-30T13:10:27.470Z,85.66
2018-12-30T13:12:55.863Z,88.00
2018-12-30T13:15:25.037Z,86.51
2018-12-30T13:17:53.380Z,85.99
2018-12-30T13:20:21.685Z,87.41
2018-12-30T13:22:50.392Z,87.70
2018-12-30T13:25:18.769Z,89.92
2018-12-30T13:27:47.109Z,89.94
2018-12-30T13:30:15.415Z,86.77
2018-12-30T13:32:43.855Z,89.95
2018-12-30T13:35:12.155Z,88.44
2018-12-30T13:37:40.780Z,88.77
2018-12-30T13:40:09.171Z,90.84
2018-12-30T13:42:37.486Z,90.00
2018-12-30T13:45:05.988Z,90.34
2018-12-30T13:47:34.300Z,89.34
2018-12-30T13:50:02.613Z,90.16
2018-12-30T13:52:31.285Z,92.10
2018-12-30T13:54:59.663Z,91.19
2018-12-30T13:57:28.003Z,90.41
2018-12-30T13:59:56.307Z,94.62
2018-12-30T14:02:24.616Z,97.91
2018-12-30T14:04:53.013Z,95.64
2018-12-30T14:07:21.395Z,94.17
2018-12-30T14:09:50.049Z,94.62
2018-12-30T14:12:18.739Z,93.65
2018-12-30T14:14:47.444Z,92.86
2018-12-30T14:17:15.767Z,95.26
2018-12-30T14:19:44.596Z,94.79
2018-12-30T14:22:12.926Z,94.03
2018-12-30T14:24:41.237Z,91.46
2018-12-30T14:27:09.825Z,93.44
2018-12-30T14:29:38.135Z,92.68
2018-12-30T14:32:06.454Z,91.80
2018-12-30T14:34:34.807Z,92.33
2018-12-30T14:37:03.178Z,91.60
2018-12-30T14:39:31.656Z,91.37
2018-12-30T14:42:00.679Z,91.92
2018-12-30T14:44:29.009Z,94.97
2018-12-30T14:46:57.320Z,94.94
2018-12-30T14:49:25.997Z,93.01
2018-12-30T14:51:54.337Z,96.17
2018-12-30T14:54:22.645Z,96.98
2018-12-30T14:56:51.002Z,96.13
2018-12-30T14:59:19.373Z,94.58
2018-12-30T15:01:48.001Z,93.06
2018-12-30T15:04:16.323Z,93.07
2018-12-30T15:06:44.651Z,91.10
2018-12-30T15:09:12.961Z,92.37
2018-12-30T15:11:41.273Z,91.25
2018-12-30T15:14:09.605Z,92.15
2018-12-30T15:16:37.925Z,91.10
2018-12-30T15:19:06.784Z,89.51
2018-12-30T15:21:35.086Z,91.75
2018-12-30T15:24:03.749Z,91.48
2018-12-30T15:26:32.060Z,97.45
2018-12-30T15:29:00.380Z,92.69
2018-12-30T15:31:28.880Z,91.93
2018-12-30T15:33:57.225Z,93.44
2018-12-30T15:36:25.534Z,92.82
2018-12-30T15:38:54.240Z,93.42
2018-12-30T15:41:22.546Z,91.00
2018-12-30T15:43:51.212Z,97.60
2018-12-30T15:46:19.530Z,93.06
2018-12-30T15:48:47.881Z,92.79
2018-12-30T15:51:16.194Z,91.73
2018-12-30T15:53:44.528Z,94.67
2018-12-30T15:56:13.226Z,95.21
2018-12-30T15:58:41.553Z,99.24
2018-12-30T16:01:09.869Z,98.39
2018-12-30T16:03:38.192Z,99.36
2018-12-30T16:06:06.495Z,97.82
2018-12-30T16:08:34.815Z,99.62
2018-12-30T16:11:03.119Z,97.79
2018-12-30T16:13:31.447Z,100.00
2018-12-30T16:15:59.753Z,97.88
2018-12-30T16:18:28.079Z,97.57
2018-12-30T16:20:57.139Z,96.66
2018-12-30T16:23:26.246Z,95.33
2018-12-30T16:25:54.561Z,95.50
2018-12-30T16:28:23.217Z,98.14
2018-12-30T16:30:51.533Z,95.92
2018-12-30T16:33:19.959Z,96.10
2018-12-30T16:35:48.259Z,95.11
2018-12-30T16:38:16.761Z,94.32
2018-12-30T16:40:45.206Z,94.63
2018-12-30T16:43:13.539Z,95.70
2018-12-30T16:45:41.850Z,93.86
2018-12-30T16:48:10.567Z,91.59
2018-12-30T16:50:39.255Z,92.23
2018-12-30T16:53:07.585Z,93.17
2018-12-30T16:55:36.106Z,92.54
2018-12-30T16:58:04.504Z,92.90
2018-12-30T17:00:32.874Z,91.97
2018-12-30T17:03:01.353Z,91.71
2018-12-30T17:05:29.665Z,89.54
2018-12-30T17:07:57.993Z,91.98
2018-12-30T17:10:26.372Z,91.59
2018-12-30T17:12:54.698Z,90.40
2018-12-30T17:15:23.009Z,90.49
2018-12-30T17:17:51.337Z,90.39
2018-12-30T17:20:19.651Z,91.43
2018-12-30T17:22:48.334Z,91.43
2018-12-30T17:25:16.711Z,90.33
2018-12-30T17:27:45.388Z,91.00
2018-12-30T17:30:13.800Z,87.96
2018-12-30T17:32:42.175Z,89.29
2018-12-30T17:35:10.573Z,89.96
2018-12-30T17:37:39.226Z,87.58
2018-12-30T17:40:07.883Z,87.58
2018-12-30T17:42:36.218Z,86.77
2018-12-30T17:45:06.263Z,87.78
2018-12-30T17:47:34.594Z,88.27
2018-12-30T17:50:02.968Z,85.60
2018-12-30T17:52:31.282Z,85.19
2018-12-30T17:54:59.766Z,86.61
2018-12-30T17:57:28.170Z,85.27
2018-12-30T17:59:56.472Z,87.86
2018-12-30T18:02:25.199Z,88.57
2018-12-30T18:04:53.525Z,92.04
2018-12-30T18:07:22.163Z,90.77
2018-12-30T18:09:50.504Z,89.64
2018-12-30T18:12:18.843Z,91.38
2018-12-30T18:14:47.153Z,89.35
2018-12-30T18:17:15.483Z,88.63
2018-12-30T18:19:43.806Z,87.40
2018-12-30T18:22:12.203Z,88.98
2018-12-30T18:24:40.512Z,88.19
2018-12-30T18:27:08.925Z,87.79
2018-12-30T18:29:37.241Z,89.02
2018-12-30T18:32:05.659Z,88.84
2018-12-30T18:34:34.355Z,89.17
2018-12-30T18:37:02.685Z,88.56
2018-12-30T18:39:31.004Z,88.61
2018-12-30T18:41:59.341Z,88.92
2018-12-30T18:44:28.826Z,91.46
2018-12-30T18:46:57.150Z,90.87
2018-12-30T18:49:26.187Z,88.75
2018-12-30T18:51:54.585Z,90.52
2018-12-30T18:54:23.342Z,90.92
2018-12-30T18:56:51.778Z,90.51
2018-12-30T18:59:20.436Z,92.45
2018-12-30T19:01:48.754Z,92.45
2018-12-30T19:04:17.151Z,93.94
2018-12-30T19:06:45.532Z,93.14
2018-12-30T19:09:13.994Z,94.10
2018-12-30T19:11:42.655Z,95.05
2018-12-30T19:14:11.068Z,94.18
2018-12-30T19:16:39.605Z,93.97
2018-12-30T19:19:07.917Z,93.29
2018-12-30T19:21:36.258Z,93.38
2018-12-30T19:24:04.639Z,94.11
2018-12-30T19:26:33.531Z,93.84
2018-12-30T19:29:01.844Z,92.89
2018-12-30T19:31:30.171Z,95.01
2018-12-30T19:33:58.476Z,95.25
2018-12-30T19:36:26.824Z,95.68
2018-12-30T19:38:55.134Z,94.54
2018-12-30T19:41:23.466Z,94.80
2018-12-30T19:43:51.929Z,93.46
2018-12-30T19:46:20.242Z,92.69
2018-12-30T19:48:48.566Z,96.14
2018-12-30T19:51:16.892Z,94.33
2018-12-30T19:53:45.542Z,94.91
2018-12-30T19:56:13.855Z,96.38
2018-12-30T19:58:42.512Z,92.43
2018-12-30T20:01:10.829Z,95.98
2018-12-30T20:03:39.162Z,94.79
2018-12-30T20:06:07.537Z,95.25
2018-12-30T20:08:35.863Z,96.13
2018-12-30T20:11:04.178Z,96.64
2018-12-30T20:13:32.507Z,96.93
2018-12-30T20:16:00.838Z,99.17
2018-12-30T20:18:29.564Z,100.00
2018-12-30T20:20:58.251Z,99.01
2018-12-30T20:23:26.557Z,98.88
2018-12-30T20:25:54.890Z,99.46
2018-12-30T20:28:23.214Z,99.84
2018-12-30T20:30:51.574Z,97.85
2018-12-30T20:33:19.881Z,99.30
2018-12-30T20:35:48.202Z,99.65
2018-12-30T20:38:16.534Z,99.74
2018-12-30T20:40:44.858Z,100.00
2018-12-30T20:43:13.301Z,100.00
2018-12-30T20:45:41.618Z,100.00
2018-12-30T20:48:09.950Z,100.00
2018-12-30T20:50:38.263Z,100.00
2018-12-30T20:53:06.597Z,100.00
2018-12-30T20:55:34.910Z,100.00
2018-12-30T20:58:03.371Z,100.00
2018-12-30T21:00:31.709Z,100.00
2018-12-30T21:03:00.030Z,100.00
2018-12-30T21:05:28.372Z,100.00
2018-12-30T21:07:56.694Z,100.00
2018-12-30T21:10:25.024Z,100.00
2018-12-30T21:12:53.654Z,100.00
2018-12-30T21:15:22.100Z,100.00
2018-12-30T21:17:50.418Z,100.00
2018-12-30T21:20:18.767Z,100.00
2018-12-30T21:22:48.152Z,100.00
2018-12-30T21:25:16.696Z,100.00
2018-12-30T21:27:45.026Z,100.00
2018-12-30T21:30:13.413Z,100.00
2018-12-30T21:32:41.754Z,100.00
2018-12-30T21:35:10.210Z,100.00
2018-12-30T21:37:38.551Z,100.00
2018-12-30T21:40:07.402Z,100.00
2018-12-30T21:42:43.494Z,100.00
2018-12-30T21:45:06.870Z,100.00
2018-12-30T21:47:35.500Z,100.00
2018-12-30T21:50:04.954Z,100.00
2018-12-30T21:52:33.336Z,100.00
2018-12-30T21:55:01.866Z,100.00
2018-12-30T21:57:30.192Z,100.00
2018-12-30T21:59:58.577Z,100.00
2018-12-30T22:02:26.881Z,100.00
2018-12-30T22:04:55.217Z,100.00
2018-12-30T22:07:23.606Z,100.00
2018-12-30T22:09:52.029Z,100.00
2018-12-30T22:12:20.347Z,100.00
2018-12-30T22:14:48.676Z,100.00
2018-12-30T22:17:17.005Z,100.00
2018-12-30T22:19:45.322Z,100.00
2018-12-30T22:22:13.975Z,100.00
2018-12-30T22:24:42.664Z,100.00
2018-12-30T22:27:11.348Z,100.00
2018-12-30T22:29:39.826Z,100.00
2018-12-30T22:32:08.168Z,100.00
2018-12-30T22:34:36.590Z,100.00
2018-12-30T22:37:04.927Z,100.00
2018-12-30T22:39:33.242Z,100.00
2018-12-30T22:42:01.588Z,100.00
2018-12-30T22:44:29.974Z,100.00
2018-12-30T22:46:58.286Z,100.00
2018-12-30T22:49:26.744Z,100.00
2018-12-30T22:51:55.086Z,100.00
2018-12-30T22:54:23.403Z,100.00
2018-12-30T22:56:52.053Z,100.00
2018-12-30T22:59:20.390Z,100.00
2018-12-30T23:01:48.787Z,100.00
2018-12-30T23:04:17.195Z,100.00
2018-12-30T23:06:45.516Z,100.00
2018-12-30T23:09:13.849Z,100.00
2018-12-30T23:11:42.308Z,100.00
2018-12-30T23:14:10.651Z,100.00
2018-12-30T23:16:38.968Z,100.00
2018-12-30T23:19:07.380Z,100.00
2018-12-30T23:21:36.054Z,100.00
2018-12-30T23:24:04.455Z,100.00
2018-12-30T23:26:32.770Z,100.00
2018-12-30T23:29:01.181Z,100.00
2018-12-30T23:31:29.500Z,100.00
2018-12-30T23:33:57.844Z,100.00
2018-12-30T23:36:26.255Z,100.00
2018-12-30T23:38:54.598Z,100.00
2018-12-30T23:41:23.216Z,100.00
2018-12-30T23:43:51.554Z,100.00
2018-12-30T23:46:19.873Z,100.00
2018-12-30T23:48:48.197Z,100.00
2018-12-30T23:51:16.522Z,100.00
2018-12-30T23:53:45.223Z,100.00
2018-12-30T23:56:13.537Z,100.00
2018-12-30T23:58:41.878Z,100.00
